Time;durP1;ratioP1;P1;durP2;ratioP2;P2;SDS_P1;SDS_P2;PMS_P1;PMS_P2;Temp;Humidity;BMP_temperature;BMP_pressure;BME280_temperature;BME280_humidity;BME280_pressure;Samples;Min_cycle;Max_cycle;Signal;HPM_P1;HPM_P2
2023/03/02 00:02:16;;;;;;;0.38;0.38;;;;;;;;;;5051057;28;20480;-69
2023/03/02 00:04:48;;;;;;;0.70;0.50;;;;;;;;;;5034020;28;20033;-70
2023/03/02 00:07:17;;;;;;;0.10;0.10;;;;;;;;;;5034060;28;20035;-75
2023/03/02 00:09:43;;;;;;;0.20;0.20;;;;;;;;;;5050947;28;20033;-69
2023/03/02 00:12:09;;;;;;;0.30;0.20;;;;;;;;;;5050439;28;20025;-71
2023/03/02 00:14:36;;;;;;;1.10;1.00;;;;;;;;;;5046070;28;20395;-71
2023/03/02 00:17:02;;;;;;;0.20;0.20;;;;;;;;;;5036540;28;20464;-71
2023/03/02 00:19:27;;;;;;;0.20;0.20;;;;;;;;;;5037900;28;20078;-70
2023/03/02 00:21:53;;;;;;;0.10;0.10;;;;;;;;;;5055333;28;20064;-69
2023/03/02 00:24:18;;;;;;;0.10;0.10;;;;;;;;;;5055462;28;20025;-70
2023/03/02 00:26:44;;;;;;;0.00;0.00;;;;;;;;;;5055243;28;20056;-69
2023/03/02 00:29:10;;;;;;;0.45;0.40;;;;;;;;;;5053960;28;20052;-70
2023/03/02 00:31:36;;;;;;;0.10;0.10;;;;;;;;;;5053929;28;20108;-70
2023/03/02 00:34:02;;;;;;;0.20;0.20;;;;;;;;;;5054172;28;20487;-70
2023/03/02 00:36:27;;;;;;;0.70;0.38;;;;;;;;;;5055727;28;20111;-71
2023/03/02 00:38:53;;;;;;;0.47;0.47;;;;;;;;;;5054556;28;20065;-70
2023/03/02 00:41:22;;;;;;;0.20;0.20;;;;;;;;;;5037523;28;20400;-71
2023/03/02 00:43:48;;;;;;;0.10;0.10;;;;;;;;;;5037357;28;20033;-70
2023/03/02 00:46:15;;;;;;;0.75;0.43;;;;;;;;;;5055215;28;20055;-71
2023/03/02 00:48:41;;;;;;;0.10;0.10;;;;;;;;;;5036872;28;20074;-71
2023/03/02 00:51:07;;;;;;;0.43;0.43;;;;;;;;;;5054959;28;20120;-71
2023/03/02 00:53:33;;;;;;;0.10;0.10;;;;;;;;;;5054872;28;20032;-70
2023/03/02 00:55:59;;;;;;;0.40;0.40;;;;;;;;;;5053978;28;20469;-70
2023/03/02 00:58:26;;;;;;;0.30;0.20;;;;;;;;;;5053590;28;20052;-70
2023/03/02 01:00:52;;;;;;;1.50;1.17;;;;;;;;;;5036715;28;20021;-71
2023/03/02 01:03:18;;;;;;;0.10;0.10;;;;;;;;;;5053575;28;20043;-71
2023/03/02 01:05:43;;;;;;;0.20;0.20;;;;;;;;;;5054543;28;20017;-70
2023/03/02 01:08:09;;;;;;;0.20;0.15;;;;;;;;;;5054737;28;20036;-70
2023/03/02 01:10:34;;;;;;;0.10;0.10;;;;;;;;;;5053507;28;20033;-71
2023/03/02 01:13:01;;;;;;;0.55;0.35;;;;;;;;;;5053381;28;20029;-69
2023/03/02 01:15:27;;;;;;;0.20;0.20;;;;;;;;;;5053094;28;20029;-70
2023/03/02 01:17:52;;;;;;;0.10;0.10;;;;;;;;;;5069888;28;20032;-70
2023/03/02 01:20:18;;;;;;;0.20;0.20;;;;;;;;;;5053306;28;20021;-69
2023/03/02 01:22:44;;;;;;;0.40;0.30;;;;;;;;;;5053535;28;20128;-70
2023/03/02 01:25:10;;;;;;;0.10;0.10;;;;;;;;;;5053125;28;20017;-71
2023/03/02 01:27:36;;;;;;;0.10;0.10;;;;;;;;;;5054479;28;20044;-70
2023/03/02 01:30:01;;;;;;;0.30;0.30;;;;;;;;;;5053904;28;20083;-73
2023/03/02 01:32:29;;;;;;;0.10;0.10;;;;;;;;;;5054655;28;20029;-72
2023/03/02 01:34:54;;;;;;;0.28;0.28;;;;;;;;;;5054515;28;20025;-70
2023/03/02 01:37:21;;;;;;;0.20;0.20;;;;;;;;;;5054083;28;20017;-70
2023/03/02 01:39:47;;;;;;;0.20;0.20;;;;;;;;;;5054126;28;20032;-70
2023/03/02 01:42:13;;;;;;;0.22;0.17;;;;;;;;;;5053228;28;20048;-69
2023/03/02 01:44:38;;;;;;;0.20;0.20;;;;;;;;;;5053024;28;20086;-69
2023/03/02 01:47:15;;;;;;;0.10;0.10;;;;;;;;;;5052546;28;20067;-69
2023/03/02 01:50:25;;;;;;;0.52;0.52;;;;;;;;;;5053500;28;20041;-71
2023/03/02 01:52:57;;;;;;;0.10;0.10;;;;;;;;;;5044416;28;20032;-69
2023/03/02 01:55:24;;;;;;;0.43;0.30;;;;;;;;;;5073575;28;20029;-69
2023/03/02 01:57:52;;;;;;;0.30;0.30;;;;;;;;;;5054621;28;20497;-71
2023/03/02 02:00:23;;;;;;;0.20;0.20;;;;;;;;;;5058809;28;20071;-69
2023/03/02 02:02:50;;;;;;;3.50;0.52;;;;;;;;;;5054288;28;20028;-72
2023/03/02 02:05:21;;;;;;;0.60;0.60;;;;;;;;;;5039477;28;20036;-69
2023/03/02 02:07:47;;;;;;;0.40;0.40;;;;;;;;;;5035693;28;20036;-70
2023/03/02 02:10:13;;;;;;;0.85;0.85;;;;;;;;;;5044920;28;20476;-71
2023/03/02 02:12:39;;;;;;;0.13;0.13;;;;;;;;;;5072326;28;20090;-69
2023/03/02 02:15:05;;;;;;;0.20;0.20;;;;;;;;;;5073574;28;20454;-69
2023/03/02 02:17:30;;;;;;;4.55;2.67;;;;;;;;;;5073507;28;20116;-69
2023/03/02 02:20:15;;;;;;;0.10;0.10;;;;;;;;;;5057696;28;20418;-70
2023/03/02 02:22:59;;;;;;;0.10;0.10;;;;;;;;;;5043430;28;20114;-70
2023/03/02 02:25:38;;;;;;;0.10;0.10;;;;;;;;;;5054401;28;20029;-69
2023/03/02 02:28:07;;;;;;;0.10;0.10;;;;;;;;;;5038635;28;20037;-70
2023/03/02 02:30:34;;;;;;;0.20;0.20;;;;;;;;;;5058815;28;20029;-70
2023/03/02 02:33:00;;;;;;;0.10;0.10;;;;;;;;;;5052165;28;20327;-69
2023/03/02 02:35:27;;;;;;;0.10;0.10;;;;;;;;;;5052197;28;20068;-69
2023/03/02 02:37:56;;;;;;;0.10;0.10;;;;;;;;;;5052222;28;20468;-69
2023/03/02 02:40:41;;;;;;;0.10;0.10;;;;;;;;;;5052133;28;20041;-69
2023/03/02 02:43:09;;;;;;;0.10;0.10;;;;;;;;;;5084669;28;20127;-69
2023/03/02 02:45:35;;;;;;;0.40;0.22;;;;;;;;;;5052967;28;20033;-69
2023/03/02 02:48:00;;;;;;;0.47;0.45;;;;;;;;;;5052034;28;20025;-68
2023/03/02 02:50:30;;;;;;;0.10;0.10;;;;;;;;;;5053035;28;20119;-68
2023/03/02 02:52:58;;;;;;;0.30;0.30;;;;;;;;;;5053057;28;20052;-68
2023/03/02 02:55:25;;;;;;;0.20;0.20;;;;;;;;;;5052973;28;20071;-70
2023/03/02 02:57:53;;;;;;;0.20;0.20;;;;;;;;;;5035324;28;20044;-71
2023/03/02 03:00:20;;;;;;;0.20;0.20;;;;;;;;;;5038193;28;20040;-71
2023/03/02 03:02:48;;;;;;;0.10;0.10;;;;;;;;;;5054513;28;20025;-69
2023/03/02 03:05:15;;;;;;;0.30;0.30;;;;;;;;;;5052145;28;20041;-70
2023/03/02 03:07:41;;;;;;;0.63;0.47;;;;;;;;;;5035410;28;20029;-70
2023/03/02 03:10:11;;;;;;;1.67;0.77;;;;;;;;;;5053397;28;20441;-70
2023/03/02 03:12:38;;;;;;;0.80;0.50;;;;;;;;;;5057526;28;20066;-70
2023/03/02 03:15:04;;;;;;;0.10;0.10;;;;;;;;;;5058949;28;20032;-70
2023/03/02 03:17:30;;;;;;;0.22;0.22;;;;;;;;;;5075751;28;20024;-71
2023/03/02 03:20:05;;;;;;;1.20;0.47;;;;;;;;;;5069357;28;20025;-70
2023/03/02 03:22:33;;;;;;;0.20;0.20;;;;;;;;;;5055466;28;20032;-71
2023/03/02 03:24:59;;;;;;;0.25;0.25;;;;;;;;;;5055593;28;20090;-70
2023/03/02 03:27:25;;;;;;;0.20;0.20;;;;;;;;;;5056498;28;20029;-72
2023/03/02 03:29:50;;;;;;;0.70;0.70;;;;;;;;;;5056638;28;20439;-71
2023/03/02 03:32:18;;;;;;;0.20;0.20;;;;;;;;;;5056695;28;20036;-70
2023/03/02 03:34:44;;;;;;;0.10;0.10;;;;;;;;;;5055256;28;20033;-69
2023/03/02 03:37:18;;;;;;;0.40;0.40;;;;;;;;;;5056465;28;20030;-69
2023/03/02 03:39:44;;;;;;;0.17;0.17;;;;;;;;;;5054929;28;20032;-71
2023/03/02 03:42:10;;;;;;;0.30;0.30;;;;;;;;;;5055177;28;20052;-71
2023/03/02 03:44:36;;;;;;;0.30;0.30;;;;;;;;;;5060837;28;20116;-69
2023/03/02 03:47:02;;;;;;;0.30;0.10;;;;;;;;;;5075063;28;20055;-69
2023/03/02 03:49:28;;;;;;;0.77;0.77;;;;;;;;;;5075305;28;20132;-69
2023/03/02 03:51:54;;;;;;;0.13;0.13;;;;;;;;;;5074826;28;20037;-69
2023/03/02 03:54:21;;;;;;;0.20;0.20;;;;;;;;;;5074687;28;20033;-70
2023/03/02 03:56:47;;;;;;;0.10;0.10;;;;;;;;;;5074690;28;20012;-70
2023/03/02 03:59:15;;;;;;;0.10;0.10;;;;;;;;;;5054247;28;20028;-70
2023/03/02 04:01:48;;;;;;;0.10;0.10;;;;;;;;;;5063372;28;20033;-70
2023/03/02 04:04:16;;;;;;;0.20;0.20;;;;;;;;;;5061794;28;20584;-71
2023/03/02 04:06:42;;;;;;;2.15;0.55;;;;;;;;;;5056051;28;20025;-70
2023/03/02 04:09:08;;;;;;;1.00;0.40;;;;;;;;;;5041167;28;20466;-71
2023/03/02 04:11:36;;;;;;;0.10;0.10;;;;;;;;;;5070606;28;20131;-70
2023/03/02 04:14:02;;;;;;;0.20;0.20;;;;;;;;;;5059031;28;20029;-70
2023/03/02 04:16:28;;;;;;;0.10;0.10;;;;;;;;;;5052546;28;20060;-70
2023/03/02 04:18:54;;;;;;;0.20;0.20;;;;;;;;;;5058900;28;20063;-70
2023/03/02 04:21:20;;;;;;;0.10;0.10;;;;;;;;;;5071618;28;20086;-70
2023/03/02 04:23:46;;;;;;;0.35;0.35;;;;;;;;;;5069395;28;20033;-72
2023/03/02 04:26:12;;;;;;;0.30;0.30;;;;;;;;;;5070297;28;20596;-72
2023/03/02 04:28:37;;;;;;;0.15;0.15;;;;;;;;;;5070369;28;20088;-70
2023/03/02 04:31:03;;;;;;;0.32;0.32;;;;;;;;;;5062118;28;20029;-71
2023/03/02 04:33:28;;;;;;;0.10;0.10;;;;;;;;;;5050224;28;20033;-70
2023/03/02 04:35:55;;;;;;;0.20;0.20;;;;;;;;;;5051405;28;20119;-69
2023/03/02 04:38:21;;;;;;;0.20;0.20;;;;;;;;;;5050055;28;20025;-70
2023/03/02 04:40:47;;;;;;;0.35;0.32;;;;;;;;;;5049905;28;20052;-69
2023/03/02 04:43:12;;;;;;;0.10;0.10;;;;;;;;;;5049860;28;20025;-71
2023/03/02 04:45:38;;;;;;;2.70;1.80;;;;;;;;;;5051456;28;20032;-70
2023/03/02 04:48:04;;;;;;;0.10;0.10;;;;;;;;;;5033534;28;20488;-69
2023/03/02 04:50:29;;;;;;;0.10;0.10;;;;;;;;;;5050179;28;20029;-71
2023/03/02 04:52:55;;;;;;;0.10;0.10;;;;;;;;;;5050716;28;20029;-71
2023/03/02 04:55:22;;;;;;;0.10;0.10;;;;;;;;;;5052979;28;20032;-70
2023/03/02 04:57:48;;;;;;;0.17;0.17;;;;;;;;;;5051860;28;20024;-71
2023/03/02 05:00:14;;;;;;;0.15;0.15;;;;;;;;;;5054384;28;20380;-71
2023/03/02 05:02:40;;;;;;;0.10;0.10;;;;;;;;;;5050098;28;20033;-69
2023/03/02 05:05:06;;;;;;;0.10;0.10;;;;;;;;;;5049521;28;20123;-70
2023/03/02 05:07:31;;;;;;;0.10;0.10;;;;;;;;;;5050629;28;20490;-69
2023/03/02 05:09:57;;;;;;;0.20;0.20;;;;;;;;;;5051103;28;20029;-69
2023/03/02 05:12:22;;;;;;;0.10;0.10;;;;;;;;;;5051061;28;20393;-69
2023/03/02 05:14:48;;;;;;;0.20;0.20;;;;;;;;;;5050695;28;20104;-71
2023/03/02 05:17:13;;;;;;;0.20;0.20;;;;;;;;;;5050732;28;20037;-70
2023/03/02 05:19:39;;;;;;;0.85;0.55;;;;;;;;;;5049110;28;20534;-70
2023/03/02 05:22:04;;;;;;;1.85;0.50;;;;;;;;;;5050323;28;20056;-71
2023/03/02 05:24:30;;;;;;;0.50;0.32;;;;;;;;;;5050254;28;20025;-71
2023/03/02 05:26:55;;;;;;;0.10;0.10;;;;;;;;;;5050334;28;20025;-71
2023/03/02 05:29:21;;;;;;;0.10;0.10;;;;;;;;;;5049551;28;20041;-70
2023/03/02 05:31:47;;;;;;;0.10;0.10;;;;;;;;;;5050118;28;20027;-70
2023/03/02 05:34:13;;;;;;;0.10;0.10;;;;;;;;;;5050062;28;20098;-70
2023/03/02 05:36:39;;;;;;;0.20;0.20;;;;;;;;;;5050665;28;20494;-70
2023/03/02 05:39:05;;;;;;;0.20;0.20;;;;;;;;;;5049901;28;20032;-70
2023/03/02 05:41:30;;;;;;;0.30;0.30;;;;;;;;;;5048639;28;20060;-70
2023/03/02 05:43:56;;;;;;;0.40;0.40;;;;;;;;;;5049813;28;20492;-70
2023/03/02 05:46:22;;;;;;;0.10;0.10;;;;;;;;;;5054663;28;20475;-76
2023/03/02 05:48:47;;;;;;;0.45;0.45;;;;;;;;;;5049931;28;20031;-72
2023/03/02 05:51:13;;;;;;;0.20;0.20;;;;;;;;;;5048748;28;20029;-72
2023/03/02 05:53:38;;;;;;;0.10;0.10;;;;;;;;;;5049685;28;20048;-71
2023/03/02 05:56:04;;;;;;;0.20;0.20;;;;;;;;;;5050073;28;20033;-71
2023/03/02 05:58:29;;;;;;;1.10;0.40;;;;;;;;;;5049792;28;20078;-71
2023/03/02 06:00:55;;;;;;;0.10;0.10;;;;;;;;;;5052471;28;20468;-69
2023/03/02 06:03:20;;;;;;;0.10;0.10;;;;;;;;;;5064060;28;20109;-70
2023/03/02 06:05:49;;;;;;;0.20;0.20;;;;;;;;;;5067366;28;20031;-70
2023/03/02 06:08:19;;;;;;;0.10;0.10;;;;;;;;;;5063898;28;20225;-71
2023/03/02 06:10:44;;;;;;;0.20;0.20;;;;;;;;;;5062661;28;20048;-72
2023/03/02 06:13:10;;;;;;;0.10;0.10;;;;;;;;;;5067521;28;20579;-70
2023/03/02 06:15:35;;;;;;;0.10;0.10;;;;;;;;;;5058327;28;20069;-69
2023/03/02 06:18:01;;;;;;;0.20;0.20;;;;;;;;;;5051815;28;20067;-73
2023/03/02 06:20:26;;;;;;;0.28;0.28;;;;;;;;;;5053043;28;20024;-74
2023/03/02 06:22:52;;;;;;;1.60;1.45;;;;;;;;;;5055364;28;20032;-69
2023/03/02 06:25:22;;;;;;;4.35;1.83;;;;;;;;;;5037332;28;20036;-70
2023/03/02 06:27:52;;;;;;;2.85;2.15;;;;;;;;;;5051331;28;20028;-70
2023/03/02 06:30:20;;;;;;;0.10;0.10;;;;;;;;;;5035322;28;20048;-70
2023/03/02 06:32:45;;;;;;;1.10;1.00;;;;;;;;;;5051223;28;20115;-70
2023/03/02 06:35:11;;;;;;;0.43;0.43;;;;;;;;;;5069512;28;20163;-75
2023/03/02 06:37:37;;;;;;;0.68;0.60;;;;;;;;;;5067691;28;20138;-70
2023/03/02 06:40:07;;;;;;;0.68;0.68;;;;;;;;;;5051185;28;20036;-70
2023/03/02 06:42:32;;;;;;;4.13;0.85;;;;;;;;;;5059760;28;20037;-72
2023/03/02 06:44:58;;;;;;;0.30;0.30;;;;;;;;;;5034440;28;20051;-70
2023/03/02 06:47:24;;;;;;;1.58;1.48;;;;;;;;;;5053814;28;20035;-71
2023/03/02 06:49:49;;;;;;;1.35;1.08;;;;;;;;;;5060138;28;20031;-71
2023/03/02 06:52:15;;;;;;;0.20;0.20;;;;;;;;;;5060265;28;20040;-69
2023/03/02 06:54:40;;;;;;;0.93;0.45;;;;;;;;;;5055218;28;20083;-69
2023/03/02 06:57:06;;;;;;;0.10;0.10;;;;;;;;;;5055670;28;20083;-69
2023/03/02 06:59:32;;;;;;;0.35;0.32;;;;;;;;;;5056415;28;20209;-69
2023/03/02 07:01:58;;;;;;;2.85;1.17;;;;;;;;;;5057838;28;20041;-70
2023/03/02 07:04:23;;;;;;;0.30;0.30;;;;;;;;;;5057694;28;20036;-70
2023/03/02 07:06:49;;;;;;;1.13;1.02;;;;;;;;;;5057111;28;20120;-70
2023/03/02 07:09:14;;;;;;;0.17;0.17;;;;;;;;;;5043624;28;20032;-70
2023/03/02 07:11:40;;;;;;;0.88;0.20;;;;;;;;;;5058918;28;20108;-70
2023/03/02 07:14:05;;;;;;;0.40;0.35;;;;;;;;;;5056486;28;20008;-70
2023/03/02 07:16:32;;;;;;;0.20;0.20;;;;;;;;;;5054820;28;20056;-70
2023/03/02 07:18:58;;;;;;;0.17;0.17;;;;;;;;;;5048842;28;20032;-70
2023/03/02 07:21:24;;;;;;;0.10;0.10;;;;;;;;;;5063155;28;20049;-71
2023/03/02 07:23:49;;;;;;;0.38;0.38;;;;;;;;;;5039185;28;20029;-70
2023/03/02 07:26:15;;;;;;;0.10;0.10;;;;;;;;;;5056418;28;20111;-70
2023/03/02 07:28:42;;;;;;;0.10;0.10;;;;;;;;;;5059820;28;20045;-70
2023/03/02 07:31:07;;;;;;;0.20;0.20;;;;;;;;;;5064852;28;20092;-70
2023/03/02 07:33:33;;;;;;;0.15;0.15;;;;;;;;;;5066402;28;20106;-73
2023/03/02 07:35:59;;;;;;;0.15;0.15;;;;;;;;;;5056528;28;20666;-69
2023/03/02 07:38:24;;;;;;;0.20;0.20;;;;;;;;;;5054534;28;20578;-70
2023/03/02 07:40:50;;;;;;;0.10;0.10;;;;;;;;;;5037860;28;20052;-70
2023/03/02 07:43:16;;;;;;;0.30;0.30;;;;;;;;;;5055972;28;20067;-69
2023/03/02 07:45:41;;;;;;;0.10;0.10;;;;;;;;;;5059665;28;20025;-70
2023/03/02 07:48:07;;;;;;;0.20;0.20;;;;;;;;;;5075694;28;20012;-70
2023/03/02 07:50:32;;;;;;;0.10;0.10;;;;;;;;;;5057199;28;20112;-70
2023/03/02 07:52:58;;;;;;;0.45;0.45;;;;;;;;;;5055319;28;20094;-70
2023/03/02 07:55:23;;;;;;;0.85;0.65;;;;;;;;;;5055438;28;20033;-69
2023/03/02 07:57:49;;;;;;;0.25;0.20;;;;;;;;;;5063800;28;20307;-69
2023/03/02 08:00:15;;;;;;;1.42;1.35;;;;;;;;;;5051445;28;20104;-71
2023/03/02 08:02:40;;;;;;;0.10;0.10;;;;;;;;;;5051045;28;20476;-70
2023/03/02 08:05:06;;;;;;;0.10;0.10;;;;;;;;;;5052487;28;20472;-70
2023/03/02 08:07:32;;;;;;;0.60;0.40;;;;;;;;;;5056946;28;20388;-71
2023/03/02 08:09:59;;;;;;;0.30;0.30;;;;;;;;;;5044907;28;20384;-69
2023/03/02 08:12:26;;;;;;;1.08;1.00;;;;;;;;;;5061652;28;20032;-69
2023/03/02 08:14:54;;;;;;;0.17;0.17;;;;;;;;;;5062305;28;20095;-70
2023/03/02 08:17:19;;;;;;;0.80;0.43;;;;;;;;;;5071797;28;20074;-73
2023/03/02 08:19:45;;;;;;;0.20;0.20;;;;;;;;;;5070401;28;20476;-74
2023/03/02 08:22:11;;;;;;;0.10;0.10;;;;;;;;;;5056796;28;20127;-73
2023/03/02 08:24:37;;;;;;;0.10;0.10;;;;;;;;;;5067296;28;20440;-74
2023/03/02 08:27:02;;;;;;;0.17;0.17;;;;;;;;;;5070360;28;20067;-75
2023/03/02 08:29:28;;;;;;;0.10;0.10;;;;;;;;;;5068784;28;20052;-74
2023/03/02 08:31:54;;;;;;;0.20;0.20;;;;;;;;;;5039109;28;20119;-73
2023/03/02 08:34:19;;;;;;;0.13;0.13;;;;;;;;;;5061838;28;20434;-74
2023/03/02 08:36:45;;;;;;;0.20;0.20;;;;;;;;;;5058254;28;20379;-74
2023/03/02 08:39:10;;;;;;;0.10;0.10;;;;;;;;;;5062914;28;20021;-74
2023/03/02 08:41:36;;;;;;;0.10;0.10;;;;;;;;;;5063064;28;20033;-73
2023/03/02 08:44:01;;;;;;;0.10;0.10;;;;;;;;;;5062635;28;20032;-76
2023/03/02 08:46:27;;;;;;;0.57;0.32;;;;;;;;;;5061897;28;20033;-76
2023/03/02 08:48:53;;;;;;;0.40;0.40;;;;;;;;;;5057583;28;20025;-77
2023/03/02 08:51:22;;;;;;;0.10;0.10;;;;;;;;;;5060738;28;20016;-74
2023/03/02 08:53:53;;;;;;;0.70;0.40;;;;;;;;;;5052560;28;20033;-74
2023/03/02 08:56:20;;;;;;;0.20;0.20;;;;;;;;;;5053863;28;20385;-75
2023/03/02 08:58:47;;;;;;;0.60;0.30;;;;;;;;;;5052326;28;20029;-74
2023/03/02 09:01:20;;;;;;;0.20;0.20;;;;;;;;;;5050409;28;20044;-74
2023/03/02 09:03:45;;;;;;;0.32;0.32;;;;;;;;;;5062609;28;20028;-74
2023/03/02 09:06:11;;;;;;;0.10;0.10;;;;;;;;;;5057422;28;20083;-74
2023/03/02 09:08:37;;;;;;;0.35;0.20;;;;;;;;;;5054727;28;20557;-74
2023/03/02 09:11:03;;;;;;;0.22;0.20;;;;;;;;;;5059022;28;20029;-74
2023/03/02 09:13:28;;;;;;;0.10;0.10;;;;;;;;;;5046987;28;20024;-74
2023/03/02 09:15:55;;;;;;;0.10;0.10;;;;;;;;;;5056142;28;20104;-75
2023/03/02 09:18:21;;;;;;;0.40;0.40;;;;;;;;;;5050757;28;20079;-75
2023/03/02 09:20:50;;;;;;;0.10;0.10;;;;;;;;;;5052742;28;20041;-74
2023/03/02 09:23:16;;;;;;;0.22;0.22;;;;;;;;;;5037148;28;20102;-75
2023/03/02 09:29:09;;;;;;;0.90;0.45;;;;;;;;;;5056888;28;20056;-75
2023/03/02 09:31:35;;;;;;;0.20;0.20;;;;;;;;;;5054328;28;20025;-74
2023/03/02 09:37:28;;;;;;;0.10;0.10;;;;;;;;;;5067493;28;20039;-73
2023/03/02 09:39:53;;;;;;;0.10;0.10;;;;;;;;;;5068926;28;20044;-75
2023/03/02 09:42:26;;;;;;;0.10;0.10;;;;;;;;;;5048080;28;20045;-73
2023/03/02 09:44:56;;;;;;;0.20;0.20;;;;;;;;;;5048684;28;20654;-76
2023/03/02 09:47:31;;;;;;;0.28;0.22;;;;;;;;;;5031093;28;20029;-76
2023/03/02 09:50:03;;;;;;;0.10;0.10;;;;;;;;;;5057944;28;20422;-74
2023/03/02 09:52:34;;;;;;;0.15;0.15;;;;;;;;;;5064264;28;20024;-74
2023/03/02 09:55:17;;;;;;;0.10;0.10;;;;;;;;;;5057072;28;20029;-75
2023/03/02 09:57:42;;;;;;;0.20;0.20;;;;;;;;;;5048977;28;20399;-75
2023/03/02 10:00:27;;;;;;;0.10;0.10;;;;;;;;;;5049106;28;20037;-74
2023/03/02 10:02:55;;;;;;;0.30;0.30;;;;;;;;;;5048756;28;20388;-75
2023/03/02 10:05:40;;;;;;;0.10;0.10;;;;;;;;;;5065349;28;20104;-74
2023/03/02 10:08:26;;;;;;;0.10;0.10;;;;;;;;;;5052394;28;20036;-74
2023/03/02 10:10:52;;;;;;;0.10;0.10;;;;;;;;;;5067474;28;20032;-74
2023/03/02 10:13:17;;;;;;;0.45;0.20;;;;;;;;;;5067576;28;20422;-75
2023/03/02 10:16:01;;;;;;;0.10;0.10;;;;;;;;;;5049062;28;20017;-77
2023/03/02 10:18:36;;;;;;;0.15;0.15;;;;;;;;;;5048647;28;20086;-76
2023/03/02 10:21:23;;;;;;;0.10;0.10;;;;;;;;;;5048054;28;20036;-74
2023/03/02 10:23:49;;;;;;;0.20;0.20;;;;;;;;;;5050540;28;20048;-75
2023/03/02 10:26:34;;;;;;;1.23;1.17;;;;;;;;;;5057179;28;20025;-75
2023/03/02 10:29:09;;;;;;;0.20;0.20;;;;;;;;;;5052896;28;20128;-75
2023/03/02 10:31:37;;;;;;;0.25;0.20;;;;;;;;;;5053005;28;20041;-77
2023/03/02 10:34:02;;;;;;;0.25;0.17;;;;;;;;;;5049068;28;20036;-76
2023/03/02 10:36:29;;;;;;;0.10;0.10;;;;;;;;;;5048078;28;20029;-77
2023/03/02 10:38:55;;;;;;;0.20;0.20;;;;;;;;;;5049218;28;20037;-76
2023/03/02 10:41:27;;;;;;;0.10;0.10;;;;;;;;;;5050410;28;20033;-74
2023/03/02 10:44:01;;;;;;;0.13;0.13;;;;;;;;;;5047832;28;20044;-75
2023/03/02 10:46:36;;;;;;;0.20;0.20;;;;;;;;;;5049358;28;20016;-78
2023/03/02 10:49:02;;;;;;;0.20;0.20;;;;;;;;;;5054523;28;20032;-76
2023/03/02 10:51:33;;;;;;;1.20;0.20;;;;;;;;;;5045684;28;20025;-76
2023/03/02 10:54:05;;;;;;;0.55;0.30;;;;;;;;;;5045161;28;20112;-76
2023/03/02 10:56:31;;;;;;;0.10;0.10;;;;;;;;;;5046960;28;20053;-76
2023/03/02 10:59:02;;;;;;;0.10;0.10;;;;;;;;;;5064634;28;20031;-75
2023/03/02 11:01:29;;;;;;;0.10;0.10;;;;;;;;;;5066486;28;20483;-76
2023/03/02 11:03:55;;;;;;;3.03;0.30;;;;;;;;;;5066285;28;20058;-76
2023/03/02 11:06:24;;;;;;;0.10;0.10;;;;;;;;;;5065103;28;20033;-76
2023/03/02 11:09:06;;;;;;;0.20;0.20;;;;;;;;;;5065497;28;20424;-76
2023/03/02 11:11:31;;;;;;;0.30;0.30;;;;;;;;;;5064911;28;20399;-77
2023/03/02 11:14:07;;;;;;;1.13;0.40;;;;;;;;;;5062084;28;20115;-75
2023/03/02 11:16:32;;;;;;;0.30;0.30;;;;;;;;;;5061563;28;20119;-76
2023/03/02 11:19:00;;;;;;;0.10;0.10;;;;;;;;;;5049592;28;20100;-75
2023/03/02 11:21:34;;;;;;;0.10;0.10;;;;;;;;;;5064391;28;20044;-75
2023/03/02 11:24:09;;;;;;;0.10;0.10;;;;;;;;;;5061223;28;20022;-75
2023/03/02 11:26:46;;;;;;;0.10;0.10;;;;;;;;;;5064853;28;20052;-75
2023/03/02 11:29:36;;;;;;;0.15;0.15;;;;;;;;;;5051592;28;20053;-76
2023/03/02 11:32:07;;;;;;;0.30;0.30;;;;;;;;;;5047906;28;20032;-75
2023/03/02 11:34:42;;;;;;;0.10;0.10;;;;;;;;;;5052574;28;20025;-75
2023/03/02 11:37:21;;;;;;;0.10;0.10;;;;;;;;;;5069038;28;20166;-76
2023/03/02 11:39:46;;;;;;;0.20;0.20;;;;;;;;;;5072562;28;20044;-75
2023/03/02 11:42:21;;;;;;;0.20;0.20;;;;;;;;;;5072320;28;20260;-75
2023/03/02 11:44:47;;;;;;;0.40;0.20;;;;;;;;;;5072574;28;20047;-75
2023/03/02 11:47:13;;;;;;;2.22;0.20;;;;;;;;;;5070708;28;20483;-75
2023/03/02 11:49:41;;;;;;;0.20;0.20;;;;;;;;;;5071409;28;20020;-74
2023/03/02 11:52:14;;;;;;;0.35;0.28;;;;;;;;;;5070305;28;20095;-76
2023/03/02 11:54:44;;;;;;;0.20;0.20;;;;;;;;;;5061270;28;20024;-75
2023/03/02 11:57:26;;;;;;;0.10;0.10;;;;;;;;;;5063947;28;20491;-74
2023/03/02 11:59:52;;;;;;;0.10;0.10;;;;;;;;;;5060658;28;20638;-75
2023/03/02 12:02:18;;;;;;;0.20;0.20;;;;;;;;;;5062822;28;20112;-75
2023/03/02 12:04:43;;;;;;;0.20;0.20;;;;;;;;;;5067900;28;20020;-75
2023/03/02 12:07:21;;;;;;;0.13;0.13;;;;;;;;;;5062583;28;20028;-74
2023/03/02 12:09:59;;;;;;;0.43;0.40;;;;;;;;;;5052141;28;20029;-77
2023/03/02 12:12:25;;;;;;;1.00;0.40;;;;;;;;;;5050700;28;20025;-74
2023/03/02 12:14:51;;;;;;;0.30;0.30;;;;;;;;;;5061209;28;20345;-74
2023/03/02 12:17:19;;;;;;;0.25;0.20;;;;;;;;;;5051837;28;20086;-75
2023/03/02 12:19:44;;;;;;;0.20;0.20;;;;;;;;;;5048776;28;20037;-76
2023/03/02 12:22:13;;;;;;;0.60;0.45;;;;;;;;;;5050467;28;20039;-74
2023/03/02 12:24:40;;;;;;;0.25;0.20;;;;;;;;;;5057000;28;20452;-75
2023/03/02 12:27:12;;;;;;;0.20;0.20;;;;;;;;;;5054788;28;20029;-73
2023/03/02 12:29:57;;;;;;;0.20;0.20;;;;;;;;;;5050938;28;20052;-73
2023/03/02 12:32:27;;;;;;;0.10;0.10;;;;;;;;;;5049038;28;20045;-74
2023/03/02 12:34:55;;;;;;;0.20;0.20;;;;;;;;;;5049711;28;20056;-76
2023/03/02 12:37:23;;;;;;;0.20;0.20;;;;;;;;;;5050073;28;20047;-74
2023/03/02 12:39:49;;;;;;;0.10;0.10;;;;;;;;;;5049756;28;20025;-76
2023/03/02 12:42:14;;;;;;;0.10;0.10;;;;;;;;;;5050078;28;20033;-75
2023/03/02 12:44:52;;;;;;;0.10;0.10;;;;;;;;;;5049793;28;20025;-75
2023/03/02 12:47:25;;;;;;;0.10;0.10;;;;;;;;;;5049660;28;20052;-75
2023/03/02 12:49:54;;;;;;;0.38;0.38;;;;;;;;;;5050144;28;20496;-74
2023/03/02 12:52:21;;;;;;;0.20;0.20;;;;;;;;;;5051321;28;20532;-74
2023/03/02 12:54:57;;;;;;;0.40;0.40;;;;;;;;;;5051598;28;20029;-74
2023/03/02 12:57:23;;;;;;;0.10;0.10;;;;;;;;;;5051131;28;20083;-74
2023/03/02 12:59:57;;;;;;;0.10;0.10;;;;;;;;;;5048730;28;20033;-75
2023/03/02 13:02:32;;;;;;;0.20;0.20;;;;;;;;;;5067418;28;20041;-74
2023/03/02 13:05:04;;;;;;;0.10;0.10;;;;;;;;;;5063531;28;20082;-74
2023/03/02 13:07:49;;;;;;;0.15;0.15;;;;;;;;;;5046010;28;20025;-75
2023/03/02 13:10:25;;;;;;;0.10;0.10;;;;;;;;;;5062147;28;20041;-74
2023/03/02 13:12:51;;;;;;;2.15;2.05;;;;;;;;;;5062581;28;20530;-74
2023/03/02 13:15:17;;;;;;;1.40;0.60;;;;;;;;;;5055411;28;20029;-77
2023/03/02 13:17:43;;;;;;;0.35;0.35;;;;;;;;;;5053686;28;20087;-74
2023/03/02 13:20:12;;;;;;;0.20;0.20;;;;;;;;;;5055235;28;20027;-75
2023/03/02 13:22:37;;;;;;;0.30;0.25;;;;;;;;;;5057367;28;20095;-76
2023/03/02 13:25:05;;;;;;;0.20;0.20;;;;;;;;;;5055075;28;20020;-75
2023/03/02 13:27:30;;;;;;;3.53;3.30;;;;;;;;;;5055671;28;20016;-76
2023/03/02 13:30:06;;;;;;;0.32;0.22;;;;;;;;;;5058263;28;20102;-77
2023/03/02 13:32:37;;;;;;;0.50;0.50;;;;;;;;;;5065548;28;20557;-76
2023/03/02 13:35:14;;;;;;;0.10;0.10;;;;;;;;;;5067762;28;20025;-75
2023/03/02 13:37:42;;;;;;;0.10;0.10;;;;;;;;;;5069747;28;20082;-75
2023/03/02 13:40:17;;;;;;;1.30;0.43;;;;;;;;;;5070305;28;20036;-76
2023/03/02 13:42:42;;;;;;;1.40;0.47;;;;;;;;;;5069693;28;20024;-75
2023/03/02 13:45:13;;;;;;;0.28;0.28;;;;;;;;;;5070227;28;20486;-75
2023/03/02 13:47:42;;;;;;;0.10;0.10;;;;;;;;;;5070502;28;20078;-77
2023/03/02 13:50:08;;;;;;;0.10;0.10;;;;;;;;;;5069920;28;20024;-77
2023/03/02 13:52:34;;;;;;;0.10;0.10;;;;;;;;;;5070288;28;20041;-76
2023/03/02 13:54:59;;;;;;;0.10;0.10;;;;;;;;;;5070151;28;20070;-76
2023/03/02 13:57:30;;;;;;;0.15;0.15;;;;;;;;;;5067541;28;20486;-79
2023/03/02 13:59:56;;;;;;;0.10;0.10;;;;;;;;;;5068693;28;20028;-77
2023/03/02 14:02:21;;;;;;;0.10;0.10;;;;;;;;;;5069798;28;20430;-75
2023/03/02 14:04:47;;;;;;;0.20;0.20;;;;;;;;;;5069742;28;20086;-76
2023/03/02 14:07:12;;;;;;;0.20;0.20;;;;;;;;;;5069558;28;20037;-77
2023/03/02 14:09:38;;;;;;;0.20;0.20;;;;;;;;;;5070335;28;20021;-75
2023/03/02 14:12:04;;;;;;;0.20;0.20;;;;;;;;;;5068634;28;20032;-75
2023/03/02 14:14:32;;;;;;;0.10;0.10;;;;;;;;;;5069508;28;20032;-76
2023/03/02 14:16:57;;;;;;;0.10;0.10;;;;;;;;;;5069500;28;20057;-75
2023/03/02 14:19:23;;;;;;;0.10;0.10;;;;;;;;;;5069403;28;20071;-76
2023/03/02 14:21:48;;;;;;;0.17;0.17;;;;;;;;;;5069296;28;20048;-76
2023/03/02 14:24:14;;;;;;;0.10;0.10;;;;;;;;;;5070027;28;20033;-75
2023/03/02 14:26:42;;;;;;;0.10;0.10;;;;;;;;;;5069642;28;20028;-76
2023/03/02 14:29:25;;;;;;;0.20;0.20;;;;;;;;;;5069491;28;20480;-77
2023/03/02 14:31:52;;;;;;;0.13;0.13;;;;;;;;;;5069586;28;20039;-76
2023/03/02 14:34:17;;;;;;;0.10;0.10;;;;;;;;;;5068083;28;20499;-76
2023/03/02 14:36:45;;;;;;;0.10;0.10;;;;;;;;;;5069728;28;20032;-76
2023/03/02 14:39:23;;;;;;;0.10;0.10;;;;;;;;;;5050327;28;20032;-79
2023/03/02 14:41:49;;;;;;;0.17;0.17;;;;;;;;;;5057373;28;20040;-76
2023/03/02 14:44:14;;;;;;;0.20;0.20;;;;;;;;;;5065516;28;20028;-77
2023/03/02 14:46:40;;;;;;;0.22;0.22;;;;;;;;;;5060306;28;20051;-76
2023/03/02 14:49:05;;;;;;;0.10;0.10;;;;;;;;;;5049734;28;20082;-76
2023/03/02 14:51:33;;;;;;;0.20;0.20;;;;;;;;;;5047354;28;20113;-75
2023/03/02 14:54:00;;;;;;;0.10;0.10;;;;;;;;;;5054691;28;20032;-76
2023/03/02 14:56:26;;;;;;;0.57;0.57;;;;;;;;;;5056018;28;20442;-76